createdAt,value
2023-05-24T00:01:57.895Z,10.52
2023-05-24T00:04:27.118Z,11.80
2023-05-24T00:06:57.280Z,11.98
2023-05-24T00:09:26.338Z,12.85
2023-05-24T00:11:55.351Z,13.10
2023-05-24T00:14:24.453Z,12.88
2023-05-24T00:16:53.540Z,16.25
2023-05-24T00:19:23.784Z,14.73
2023-05-24T00:21:52.877Z,14.68
2023-05-24T00:24:21.915Z,20.42
2023-05-24T00:26:50.856Z,19.35
2023-05-24T00:29:19.873Z,16.05
2023-05-24T00:31:49.622Z,14.00
2023-05-24T00:34:18.707Z,13.15
2023-05-24T00:36:47.875Z,12.32
2023-05-24T00:39:16.879Z,12.90
2023-05-24T00:41:46.068Z,13.48
2023-05-24T00:44:15.167Z,13.35
2023-05-24T00:46:44.453Z,13.57
2023-05-24T00:49:13.804Z,14.07
2023-05-24T00:51:43.119Z,14.95
2023-05-24T00:54:15.159Z,12.90
2023-05-24T00:56:47.289Z,13.90
2023-05-24T00:59:16.869Z,12.63
2023-05-24T01:01:48.173Z,14.07
2023-05-24T01:04:18.919Z,12.65
2023-05-24T01:07:13.652Z,12.90
2023-05-24T01:10:32.967Z,12.85
2023-05-24T01:13:25.339Z,13.43
2023-05-24T01:16:02.913Z,14.13
2023-05-24T01:19:02.185Z,13.60
2023-05-24T01:22:15.347Z,14.00
2023-05-24T01:25:09.768Z,13.48
2023-05-24T01:30:12.683Z,14.25
2023-05-24T01:32:42.373Z,12.57
2023-05-24T01:35:12.092Z,11.35
2023-05-24T01:37:44.047Z,12.15
2023-05-24T01:40:14.050Z,13.60
2023-05-24T01:42:56.407Z,13.77
2023-05-24T01:45:46.512Z,12.55
2023-05-24T01:48:47.461Z,11.95
2023-05-24T01:51:20.955Z,14.63
2023-05-24T01:53:52.226Z,13.18
2023-05-24T01:56:22.232Z,12.55
2023-05-24T01:58:54.555Z,12.43
2023-05-24T02:01:24.408Z,12.68
2023-05-24T02:03:53.766Z,12.60
2023-05-24T02:06:22.841Z,12.68
2023-05-24T02:08:53.723Z,11.00
2023-05-24T02:11:22.715Z,11.55
2023-05-24T02:13:51.810Z,10.07
2023-05-24T02:16:25.175Z,11.23
2023-05-24T02:18:54.716Z,11.93
2023-05-24T02:21:24.770Z,11.48
2023-05-24T02:23:53.787Z,10.90
2023-05-24T02:26:23.277Z,10.10
2023-05-24T02:28:52.340Z,11.50
2023-05-24T02:31:22.984Z,11.20
2023-05-24T02:33:52.407Z,11.13
2023-05-24T02:36:21.401Z,10.07
2023-05-24T02:38:50.998Z,10.15
2023-05-24T02:41:20.473Z,10.63
2023-05-24T02:43:49.950Z,10.45
2023-05-24T02:46:19.060Z,10.50
2023-05-24T02:48:48.349Z,10.50
2023-05-24T02:51:17.521Z,11.43
2023-05-24T02:53:49.169Z,12.45
2023-05-24T02:56:24.246Z,11.73
2023-05-24T02:58:58.154Z,12.48
2023-05-24T03:01:30.730Z,11.65
2023-05-24T03:04:02.951Z,11.35
2023-05-24T03:06:32.323Z,11.18
2023-05-24T03:09:01.473Z,12.32
2023-05-24T03:11:30.526Z,11.43
2023-05-24T03:13:59.671Z,10.77
2023-05-24T03:16:28.696Z,10.23
2023-05-24T03:18:57.860Z,10.50
2023-05-24T03:21:27.121Z,9.95
2023-05-24T03:23:56.493Z,10.75
2023-05-24T03:26:25.516Z,9.55
2023-05-24T03:28:55.595Z,9.98
2023-05-24T03:31:27.644Z,10.52
2023-05-24T03:33:57.297Z,9.25
2023-05-24T03:36:27.521Z,9.88
2023-05-24T03:38:59.335Z,9.52
2023-05-24T03:41:29.462Z,8.35
2023-05-24T03:43:58.706Z,8.05
2023-05-24T03:46:28.029Z,8.57
2023-05-24T03:48:57.280Z,8.02
2023-05-24T03:51:30.620Z,8.43
2023-05-24T03:54:01.581Z,7.65
2023-05-24T03:56:30.649Z,7.85
2023-05-24T03:59:02.082Z,8.57
2023-05-24T04:01:34.688Z,8.15
2023-05-24T04:04:07.200Z,7.63
2023-05-24T04:06:38.021Z,8.27
2023-05-24T04:09:09.530Z,9.88
2023-05-24T04:11:38.616Z,9.25
2023-05-24T04:14:07.921Z,8.90
2023-05-24T04:16:37.020Z,8.65
2023-05-24T04:19:06.278Z,8.57
2023-05-24T04:21:37.834Z,8.73
2023-05-24T04:24:07.889Z,9.25
2023-05-24T04:26:38.883Z,9.73
2023-05-24T04:29:08.897Z,11.05
2023-05-24T04:31:38.167Z,9.73
2023-05-24T04:34:08.857Z,9.10
2023-05-24T04:36:38.158Z,9.65
2023-05-24T04:39:07.473Z,9.80
2023-05-24T04:41:37.168Z,9.40
2023-05-24T04:44:06.555Z,8.13
2023-05-24T04:46:37.407Z,9.52
2023-05-24T04:49:06.884Z,8.70
2023-05-24T04:51:39.567Z,8.20
2023-05-24T04:54:19.371Z,8.00
2023-05-24T04:56:50.022Z,6.88
2023-05-24T04:59:23.998Z,8.73
2023-05-24T05:01:53.269Z,8.85
2023-05-24T05:04:22.329Z,8.52
2023-05-24T05:06:51.364Z,8.77
2023-05-24T05:09:20.974Z,8.35
2023-05-24T05:11:50.092Z,9.32
2023-05-24T05:14:19.457Z,8.38
2023-05-24T05:16:48.594Z,8.10
2023-05-24T05:19:17.835Z,7.68
2023-05-24T05:21:47.097Z,8.55
2023-05-24T05:24:18.037Z,8.20
2023-05-24T05:26:47.151Z,8.52
2023-05-24T05:29:16.135Z,8.80
2023-05-24T05:31:45.133Z,11.43
2023-05-24T05:34:14.187Z,7.10
2023-05-24T05:36:43.847Z,8.00
2023-05-24T05:39:13.134Z,7.63
2023-05-24T05:41:46.052Z,8.20
2023-05-24T05:44:15.832Z,9.40
2023-05-24T05:46:47.275Z,8.45
2023-05-24T05:49:17.989Z,9.50
2023-05-24T05:51:48.290Z,8.27
2023-05-24T05:54:19.634Z,8.40
2023-05-24T05:56:49.290Z,7.80
2023-05-24T05:59:18.853Z,8.40
2023-05-24T06:01:49.980Z,8.02
2023-05-24T06:04:19.451Z,7.90
2023-05-24T06:06:51.308Z,7.82
2023-05-24T06:09:20.391Z,7.13
2023-05-24T06:11:49.513Z,8.82
2023-05-24T06:14:19.607Z,8.65
2023-05-24T06:16:49.160Z,8.77
2023-05-24T06:19:19.409Z,8.15
2023-05-24T06:21:51.943Z,9.57
2023-05-24T06:24:24.217Z,8.18
2023-05-24T06:26:54.608Z,8.18
2023-05-24T06:29:24.009Z,8.13
2023-05-24T06:31:53.375Z,7.28
2023-05-24T06:34:22.710Z,7.95
2023-05-24T06:36:52.463Z,7.80
2023-05-24T06:39:22.107Z,9.05
2023-05-24T06:41:52.569Z,8.20
2023-05-24T06:46:51.139Z,7.93
2023-05-24T06:49:20.091Z,7.93
2023-05-24T06:51:49.095Z,7.22
2023-05-24T06:54:18.169Z,7.97
2023-05-24T06:56:47.686Z,7.22
2023-05-24T06:59:16.853Z,7.57
2023-05-24T07:01:46.016Z,7.65
2023-05-24T07:04:15.123Z,7.10
2023-05-24T07:06:44.255Z,5.95
2023-05-24T07:09:13.401Z,6.50
2023-05-24T07:11:43.211Z,7.70
2023-05-24T07:14:12.290Z,7.57
2023-05-24T07:16:41.490Z,7.00
2023-05-24T07:19:10.784Z,7.78
2023-05-24T07:21:39.968Z,7.72
2023-05-24T07:24:09.208Z,8.35
2023-05-24T07:26:38.238Z,7.43
2023-05-24T07:29:07.330Z,7.53
2023-05-24T07:31:36.668Z,8.18
2023-05-24T07:34:05.704Z,7.95
2023-05-24T07:36:35.132Z,7.97
2023-05-24T07:39:07.302Z,8.45
2023-05-24T07:41:36.343Z,8.32
2023-05-24T07:44:05.420Z,8.07
2023-05-24T07:46:35.249Z,8.68
2023-05-24T07:49:04.302Z,9.55
2023-05-24T07:51:33.915Z,8.65
2023-05-24T07:54:03.149Z,8.55
2023-05-24T07:56:33.361Z,7.53
2023-05-24T07:59:06.013Z,8.02
2023-05-24T08:01:36.393Z,7.80
2023-05-24T08:04:05.627Z,8.63
2023-05-24T08:06:34.761Z,8.10
2023-05-24T08:09:05.670Z,5.97
2023-05-24T08:11:34.943Z,6.05
2023-05-24T08:14:07.922Z,6.63
2023-05-24T08:16:37.212Z,8.10
2023-05-24T08:19:06.256Z,8.18
2023-05-24T08:21:35.419Z,8.13
2023-05-24T08:24:06.199Z,8.27
2023-05-24T08:26:37.657Z,8.32
2023-05-24T08:29:06.719Z,7.20
2023-05-24T08:31:35.837Z,7.57
2023-05-24T08:34:06.460Z,11.40
2023-05-24T08:36:35.635Z,7.30
2023-05-24T08:39:06.183Z,6.75
2023-05-24T08:41:38.613Z,7.63
2023-05-24T08:44:11.423Z,6.85
2023-05-24T08:46:41.101Z,6.35
2023-05-24T08:49:13.846Z,8.13
2023-05-24T08:51:43.265Z,7.07
2023-05-24T08:54:15.794Z,6.68
2023-05-24T08:56:45.086Z,8.88
2023-05-24T08:59:15.178Z,8.75
2023-05-24T09:01:46.153Z,8.63
2023-05-24T09:04:15.759Z,9.00
2023-05-24T09:06:44.993Z,9.45
2023-05-24T09:09:14.955Z,8.90
2023-05-24T09:11:45.215Z,9.43
2023-05-24T09:14:17.507Z,8.95
2023-05-24T09:16:47.106Z,9.15
2023-05-24T09:19:18.228Z,9.40
2023-05-24T09:21:47.514Z,9.60
2023-05-24T09:24:17.108Z,9.10
2023-05-24T09:26:46.254Z,9.63
2023-05-24T09:29:15.872Z,9.40
2023-05-24T09:31:45.147Z,9.63
2023-05-24T09:34:17.938Z,8.60
2023-05-24T09:36:49.731Z,10.60
2023-05-24T09:39:22.049Z,8.65
2023-05-24T09:41:59.046Z,9.80
2023-05-24T09:44:31.839Z,8.68
2023-05-24T09:47:08.267Z,7.72
2023-05-24T09:49:40.965Z,8.98
2023-05-24T09:52:10.153Z,8.13
2023-05-24T09:54:41.588Z,8.38
2023-05-24T09:57:10.665Z,8.00
2023-05-24T09:59:43.082Z,7.60
2023-05-24T10:02:13.519Z,8.68
2023-05-24T10:04:42.670Z,11.60
2023-05-24T10:07:13.574Z,11.27
2023-05-24T10:09:43.072Z,11.30
2023-05-24T10:12:12.400Z,11.32
2023-05-24T10:14:41.651Z,12.07
2023-05-24T10:17:11.273Z,11.55
2023-05-24T10:19:41.068Z,12.35
2023-05-24T10:22:11.461Z,12.75
2023-05-24T10:24:49.104Z,12.10
2023-05-24T10:27:22.417Z,11.48
2023-05-24T10:30:04.568Z,13.32
2023-05-24T10:32:40.339Z,12.43
2023-05-24T10:35:10.436Z,11.50
2023-05-24T10:37:39.733Z,12.82
2023-05-24T10:40:11.270Z,11.98
2023-05-24T10:42:41.209Z,12.10
2023-05-24T10:45:42.417Z,13.25
2023-05-24T10:48:18.081Z,10.55
2023-05-24T10:50:48.059Z,11.68
2023-05-24T10:53:19.035Z,12.15
2023-05-24T10:55:58.548Z,11.63
2023-05-24T10:58:50.094Z,12.45
2023-05-24T11:01:36.163Z,13.10
2023-05-24T11:04:13.274Z,11.43
2023-05-24T11:06:51.853Z,12.45
2023-05-24T11:09:23.702Z,13.48
2023-05-24T11:11:57.361Z,12.63
2023-05-24T11:16:58.581Z,12.02
2023-05-24T11:19:33.768Z,12.25
2023-05-24T11:22:05.489Z,13.52
2023-05-24T11:24:35.334Z,14.98
2023-05-24T11:27:05.008Z,15.75
2023-05-24T11:29:37.492Z,15.80
2023-05-24T11:32:07.540Z,16.35
2023-05-24T11:34:37.237Z,15.95
2023-05-24T11:37:07.243Z,17.30
2023-05-24T11:39:38.487Z,17.05
2023-05-24T11:42:11.292Z,15.45
2023-05-24T11:44:40.736Z,14.43
2023-05-24T11:47:10.200Z,15.05
2023-05-24T11:49:39.255Z,19.55
2023-05-24T11:52:08.751Z,18.48
2023-05-24T11:54:39.820Z,15.82
2023-05-24T11:57:13.881Z,16.88
2023-05-24T11:59:43.725Z,13.13
2023-05-24T12:02:12.746Z,10.77
2023-05-24T12:04:42.417Z,23.55
2023-05-24T12:07:14.709Z,22.55
2023-05-24T12:09:43.756Z,20.55
2023-05-24T12:12:12.754Z,16.38
2023-05-24T12:14:42.037Z,22.48
2023-05-24T12:17:19.716Z,21.50
2023-05-24T12:19:53.055Z,22.20
2023-05-24T12:22:28.444Z,22.15
2023-05-24T12:24:58.350Z,19.30
2023-05-24T12:27:32.480Z,14.25
2023-05-24T12:30:08.864Z,14.88
2023-05-24T12:32:38.025Z,15.95
2023-05-24T12:35:07.404Z,15.48
2023-05-24T12:37:36.888Z,14.75
2023-05-24T12:40:15.893Z,14.43
2023-05-24T12:42:51.311Z,14.85
2023-05-24T12:45:24.235Z,15.10
2023-05-24T12:47:53.992Z,17.90
2023-05-24T12:50:25.208Z,14.55
2023-05-24T12:52:55.229Z,14.57
2023-05-24T12:55:28.935Z,13.95
2023-05-24T13:00:31.198Z,14.90
2023-05-24T13:03:01.144Z,12.93
2023-05-24T13:05:31.381Z,14.68
2023-05-24T13:08:00.772Z,14.02
2023-05-24T13:10:29.845Z,14.63
2023-05-24T13:12:58.898Z,15.35
2023-05-24T13:15:28.600Z,18.20
2023-05-24T13:17:57.721Z,17.35
2023-05-24T13:20:26.907Z,13.68
2023-05-24T13:22:56.029Z,14.25
2023-05-24T13:25:25.086Z,13.85
2023-05-24T13:27:54.092Z,14.18
2023-05-24T13:30:28.664Z,17.17
2023-05-24T13:32:59.830Z,13.75
2023-05-24T13:35:29.055Z,13.50
2023-05-24T13:37:59.234Z,13.65
2023-05-24T13:40:28.264Z,13.77
2023-05-24T13:42:58.946Z,13.70
2023-05-24T13:45:28.743Z,12.75
2023-05-24T13:48:04.890Z,12.20
2023-05-24T13:50:38.609Z,12.10
2023-05-24T13:53:08.073Z,11.32
2023-05-24T13:55:39.939Z,11.43
2023-05-24T13:58:09.205Z,10.45
2023-05-24T14:00:38.765Z,9.48
2023-05-24T14:03:08.002Z,9.20
2023-05-24T14:05:46.415Z,10.70
2023-05-24T14:08:15.576Z,10.23
2023-05-24T14:10:47.039Z,10.57
2023-05-24T14:13:48.438Z,10.20
2023-05-24T14:16:06.532Z,9.50
2023-05-24T14:18:36.400Z,10.38
2023-05-24T14:21:05.582Z,9.45
2023-05-24T14:23:34.704Z,9.13
2023-05-24T14:26:04.201Z,9.75
2023-05-24T14:28:33.254Z,9.93
2023-05-24T14:31:02.270Z,9.43
2023-05-24T14:33:31.378Z,9.00
2023-05-24T14:36:00.596Z,8.70
2023-05-24T14:38:29.721Z,8.93
2023-05-24T14:40:59.919Z,8.55
2023-05-24T14:43:29.003Z,7.97
2023-05-24T14:45:58.248Z,8.05
2023-05-24T14:48:27.338Z,7.40
2023-05-24T14:50:56.580Z,7.68
2023-05-24T14:53:26.024Z,7.35
2023-05-24T14:55:55.595Z,6.57
2023-05-24T14:58:24.891Z,7.50
2023-05-24T15:00:54.264Z,8.27
2023-05-24T15:03:23.448Z,8.45
2023-05-24T15:05:53.543Z,9.80
2023-05-24T15:08:22.794Z,10.00
2023-05-24T15:10:52.279Z,8.90
2023-05-24T15:13:21.519Z,9.20
2023-05-24T15:15:50.637Z,9.27
2023-05-24T15:18:19.756Z,9.48
2023-05-24T15:20:49.151Z,8.95
2023-05-24T15:23:19.958Z,8.75
2023-05-24T15:25:50.396Z,9.48
2023-05-24T15:28:19.817Z,9.60
2023-05-24T15:30:48.903Z,8.93
2023-05-24T15:33:18.238Z,9.55
2023-05-24T15:35:47.523Z,8.95
2023-05-24T15:38:18.819Z,7.60
2023-05-24T15:40:48.260Z,6.97
2023-05-24T15:43:19.516Z,7.03
2023-05-24T15:45:49.463Z,7.82
2023-05-24T15:48:18.516Z,7.18
2023-05-24T15:51:25.706Z,4.70
2023-05-24T15:53:36.597Z,4.63
2023-05-24T15:56:05.723Z,4.43
2023-05-24T15:58:34.690Z,3.28
2023-05-24T16:01:03.736Z,3.50
2023-05-24T16:03:35.736Z,3.05
2023-05-24T16:06:05.697Z,3.85
2023-05-24T16:08:35.006Z,3.50
2023-05-24T16:11:09.257Z,3.15
2023-05-24T16:13:38.388Z,2.70
2023-05-24T16:16:10.355Z,2.78
2023-05-24T16:18:40.032Z,2.97
2023-05-24T16:21:09.134Z,2.70
2023-05-24T16:23:38.446Z,2.60
2023-05-24T16:26:07.566Z,2.55
2023-05-24T16:28:36.681Z,3.20
2023-05-24T16:31:05.917Z,2.92
2023-05-24T16:33:35.021Z,3.30
2023-05-24T16:36:05.693Z,3.60
2023-05-24T16:38:34.832Z,3.75
2023-05-24T16:41:03.994Z,3.17
2023-05-24T16:43:33.982Z,3.40
2023-05-24T16:46:03.337Z,3.72
2023-05-24T16:48:32.747Z,3.28
2023-05-24T16:51:02.636Z,3.38
2023-05-24T16:53:31.803Z,3.53
2023-05-24T16:56:00.868Z,3.20
2023-05-24T16:58:30.743Z,3.50
2023-05-24T17:00:59.862Z,4.43
2023-05-24T17:03:29.920Z,3.55
2023-05-24T17:06:04.054Z,3.85
2023-05-24T17:11:06.843Z,4.00
2023-05-24T17:13:35.891Z,4.00
2023-05-24T17:16:05.886Z,4.38
2023-05-24T17:18:35.014Z,3.85
2023-05-24T17:21:05.814Z,4.40
2023-05-24T17:23:38.500Z,4.72
2023-05-24T17:26:09.329Z,4.55
2023-05-24T17:28:38.470Z,4.63
2023-05-24T17:31:12.485Z,4.53
2023-05-24T17:33:41.507Z,4.35
2023-05-24T17:36:11.093Z,5.47
2023-05-24T17:38:40.649Z,5.25
2023-05-24T17:41:10.848Z,5.55
2023-05-24T17:43:41.590Z,5.20
2023-05-24T17:46:11.123Z,4.32
2023-05-24T17:48:41.888Z,5.72
2023-05-24T17:51:11.872Z,5.00
2023-05-24T17:53:42.233Z,4.93
2023-05-24T17:56:11.347Z,4.60
2023-05-24T17:58:40.868Z,4.68
2023-05-24T18:01:13.627Z,5.68
2023-05-24T18:03:43.812Z,5.00
2023-05-24T18:06:12.927Z,5.15
2023-05-24T18:08:44.486Z,4.43
2023-05-24T18:11:14.508Z,5.18
2023-05-24T18:13:44.555Z,4.82
2023-05-24T18:16:14.250Z,4.57
2023-05-24T18:18:45.004Z,4.38
2023-05-24T18:21:14.372Z,3.67
2023-05-24T18:23:44.193Z,4.70
2023-05-24T18:26:13.785Z,4.40
2023-05-24T18:28:43.284Z,6.63
2023-05-24T18:31:12.284Z,4.97
2023-05-24T18:33:41.526Z,4.30
2023-05-24T18:36:10.809Z,4.88
2023-05-24T18:38:43.848Z,4.32
2023-05-24T18:41:13.176Z,5.13
2023-05-24T18:43:44.029Z,4.53
2023-05-24T18:46:16.085Z,4.28
2023-05-24T18:48:45.401Z,4.70
2023-05-24T18:51:14.581Z,4.22
2023-05-24T18:53:43.648Z,4.38
2023-05-24T18:56:12.689Z,4.10
2023-05-24T18:58:42.593Z,4.28
2023-05-24T19:01:11.933Z,4.10
2023-05-24T19:03:42.869Z,4.40
2023-05-24T19:06:14.054Z,4.10
2023-05-24T19:08:43.160Z,4.55
2023-05-24T19:11:12.549Z,4.28
2023-05-24T19:13:41.702Z,4.00
2023-05-24T19:16:10.843Z,4.38
2023-05-24T19:18:40.918Z,4.78
2023-05-24T19:21:11.102Z,4.78
2023-05-24T19:23:41.753Z,5.07
2023-05-24T19:26:12.330Z,5.22
2023-05-24T19:28:43.419Z,4.93
2023-05-24T19:31:12.425Z,4.07
2023-05-24T19:33:58.759Z,4.30
2023-05-24T19:36:30.164Z,4.45
2023-05-24T19:38:59.185Z,4.93
2023-05-24T19:41:28.315Z,4.30
2023-05-24T19:43:59.854Z,3.50
2023-05-24T19:46:29.391Z,3.78
2023-05-24T19:48:58.812Z,4.40
2023-05-24T19:51:27.805Z,3.90
2023-05-24T19:53:56.971Z,4.43
2023-05-24T19:56:26.014Z,4.05
2023-05-24T19:58:55.036Z,4.40
2023-05-24T20:01:24.022Z,4.03
2023-05-24T20:03:53.220Z,4.43
2023-05-24T20:06:22.386Z,4.05
2023-05-24T20:08:51.579Z,4.00
2023-05-24T20:11:20.607Z,4.63
2023-05-24T20:13:50.436Z,4.10
2023-05-24T20:16:19.927Z,4.72
2023-05-24T20:18:48.987Z,4.07
2023-05-24T20:21:20.189Z,4.05
2023-05-24T20:23:51.133Z,4.25
2023-05-24T20:26:24.695Z,4.65
2023-05-24T20:28:53.859Z,4.50
2023-05-24T20:31:22.944Z,4.22
2023-05-24T20:33:52.796Z,4.00
2023-05-24T20:36:21.983Z,4.07
2023-05-24T20:38:51.476Z,3.58
2023-05-24T20:41:20.631Z,4.00
2023-05-24T20:43:49.913Z,3.38
2023-05-24T20:46:19.137Z,3.47
2023-05-24T20:48:49.252Z,3.63
2023-05-24T20:51:18.291Z,3.50
2023-05-24T20:53:47.997Z,3.90
2023-05-24T20:56:17.465Z,4.68
2023-05-24T20:58:47.336Z,5.30
2023-05-24T21:01:17.799Z,4.43
2023-05-24T21:03:46.992Z,5.45
2023-05-24T21:06:16.142Z,5.45
2023-05-24T21:08:45.271Z,4.72
2023-05-24T21:11:14.380Z,4.50
2023-05-24T21:13:43.416Z,5.38
2023-05-24T21:16:12.356Z,4.40
2023-05-24T21:18:41.564Z,5.20
2023-05-24T21:21:10.781Z,4.60
2023-05-24T21:23:39.857Z,4.78
2023-05-24T21:26:08.973Z,4.50
2023-05-24T21:28:38.142Z,4.72
2023-05-24T21:31:08.761Z,4.57
2023-05-24T21:33:38.701Z,4.28
2023-05-24T21:36:07.847Z,5.00
2023-05-24T21:38:36.944Z,4.15
2023-05-24T21:41:06.571Z,4.63
2023-05-24T21:43:35.555Z,4.57
2023-05-24T21:46:04.874Z,4.53
2023-05-24T21:48:34.000Z,8.35
2023-05-24T21:51:05.592Z,6.05
2023-05-24T21:53:36.126Z,6.50
2023-05-24T21:56:05.191Z,8.38
2023-05-24T21:58:34.384Z,4.80
2023-05-24T22:01:03.406Z,4.80
2023-05-24T22:03:32.489Z,4.55
2023-05-24T22:06:02.190Z,4.43
2023-05-24T22:08:31.721Z,5.32
2023-05-24T22:11:00.761Z,4.78
2023-05-24T22:13:29.836Z,4.78
2023-05-24T22:15:58.997Z,5.50
2023-05-24T22:18:29.537Z,4.75
2023-05-24T22:21:01.370Z,4.55
2023-05-24T22:23:30.753Z,5.10
2023-05-24T22:25:59.782Z,5.22
2023-05-24T22:28:30.126Z,5.13
2023-05-24T22:31:00.290Z,4.47
2023-05-24T22:33:29.325Z,6.57
2023-05-24T22:35:58.338Z,6.85
2023-05-24T22:38:27.296Z,5.38
2023-05-24T22:40:56.327Z,5.40
2023-05-24T22:43:25.305Z,4.95
2023-05-24T22:45:54.349Z,5.68
2023-05-24T22:48:27.712Z,7.45
2023-05-24T22:51:03.357Z,5.03
2023-05-24T22:53:33.351Z,5.30
2023-05-24T22:56:02.656Z,5.85
2023-05-24T22:58:31.697Z,6.18
2023-05-24T23:01:00.779Z,6.03
2023-05-24T23:03:30.554Z,6.90
2023-05-24T23:06:05.096Z,6.85
2023-05-24T23:08:34.894Z,6.80
2023-05-24T23:11:11.298Z,7.25
2023-05-24T23:13:43.353Z,7.38
2023-05-24T23:16:19.224Z,7.88
2023-05-24T23:18:49.600Z,8.30
2023-05-24T23:21:18.610Z,8.80
2023-05-24T23:23:47.592Z,8.15
2023-05-24T23:26:16.885Z,8.90
2023-05-24T23:28:46.238Z,8.75
2023-05-24T23:31:15.559Z,9.60
2023-05-24T23:33:44.742Z,9.07
2023-05-24T23:36:13.866Z,9.45
2023-05-24T23:38:42.889Z,8.45
2023-05-24T23:41:11.945Z,8.13
2023-05-24T23:43:40.981Z,7.30
2023-05-24T23:46:10.018Z,8.30
2023-05-24T23:48:39.038Z,8.07
2023-05-24T23:51:08.611Z,8.45
2023-05-24T23:53:37.817Z,8.15
2023-05-24T23:56:07.029Z,9.35
2023-05-24T23:58:37.161Z,9.15
